createdAt,value
2019-03-16T00:01:28.369Z,95136.00
2019-03-16T00:06:57.986Z,95155.00
2019-03-16T00:12:27.595Z,95161.00
2019-03-16T00:17:57.405Z,95134.00
2019-03-16T00:23:26.933Z,95182.00
2019-03-16T00:28:56.663Z,95157.00
2019-03-16T00:34:26.587Z,95181.00
2019-03-16T00:39:58.935Z,95158.00
2019-03-16T00:45:29.412Z,95157.00
2019-03-16T00:50:59.163Z,95171.00
2019-03-16T00:56:28.732Z,95166.00
2019-03-16T01:01:58.626Z,95180.00
2019-03-16T01:07:28.166Z,95172.00
2019-03-16T01:12:58.814Z,95182.00
2019-03-16T01:18:28.300Z,95190.00
2019-03-16T01:23:57.935Z,95187.00
2019-03-16T01:29:27.427Z,95184.00
2019-03-16T01:34:57.112Z,95194.00
2019-03-16T01:40:28.957Z,95176.00
2019-03-16T01:45:58.292Z,95191.00
2019-03-16T01:51:27.689Z,95202.00
2019-03-16T01:56:57.459Z,95182.00
2019-03-16T02:02:27.106Z,95185.00
2019-03-16T02:07:56.689Z,95183.00
2019-03-16T02:13:26.319Z,95189.00
2019-03-16T02:18:55.906Z,95190.00
2019-03-16T02:24:25.373Z,95195.00
2019-03-16T02:29:57.628Z,95188.00
2019-03-16T02:35:27.154Z,95197.00
2019-03-16T02:40:56.742Z,95184.00
2019-03-16T02:46:27.326Z,95147.00
2019-03-16T02:51:56.893Z,95176.00
2019-03-16T02:57:26.467Z,95140.00
2019-03-16T03:02:56.022Z,95202.00
2019-03-16T03:08:25.472Z,95183.00
2019-03-16T03:13:55.057Z,95180.00
2019-03-16T03:19:24.502Z,95191.00
2019-03-16T03:24:53.991Z,95169.00
2019-03-16T03:30:23.606Z,95178.00
2019-03-16T03:35:53.011Z,95192.00
2019-03-16T03:41:22.479Z,95206.00
2019-03-16T03:46:51.808Z,95233.00
2019-03-16T03:52:21.228Z,95225.00
2019-03-16T03:57:50.726Z,95230.00
2019-03-16T04:03:21.978Z,95234.00
2019-03-16T04:08:51.796Z,95242.00
2019-03-16T04:14:21.487Z,95281.00
2019-03-16T04:19:51.002Z,95236.00
2019-03-16T04:25:20.481Z,95267.00
2019-03-16T04:30:49.877Z,95267.00
2019-03-16T04:36:19.247Z,95302.00
2019-03-16T04:41:48.676Z,95258.00
2019-03-16T04:47:18.321Z,95272.00
2019-03-16T04:52:50.923Z,95301.00
2019-03-16T04:58:18.827Z,95278.00
2019-03-16T05:03:48.546Z,95274.00
2019-03-16T05:09:18.072Z,95284.00
2019-03-16T05:14:47.537Z,95282.00
2019-03-16T05:20:17.185Z,95280.00
2019-03-16T05:25:46.601Z,95233.00
2019-03-16T05:31:16.037Z,95256.00
2019-03-16T05:36:45.602Z,95260.00
2019-03-16T05:42:15.161Z,95251.00
2019-03-16T05:47:44.835Z,95257.00
2019-03-16T05:53:14.184Z,95287.00
2019-03-16T05:58:44.658Z,95279.00
2019-03-16T06:04:14.079Z,95285.00
2019-03-16T06:09:43.709Z,95299.00
2019-03-16T06:15:13.354Z,95316.00
2019-03-16T06:20:42.988Z,95324.00
2019-03-16T06:26:12.557Z,95325.00
2019-03-16T06:31:41.928Z,95322.00
2019-03-16T06:37:11.367Z,95332.00
2019-03-16T06:42:40.781Z,95333.00
2019-03-16T06:48:10.608Z,95320.00
2019-03-16T06:53:40.132Z,95355.00
2019-03-16T06:59:10.890Z,95373.00
2019-03-16T07:04:40.421Z,95377.00
2019-03-16T07:10:14.642Z,95377.00
2019-03-16T07:15:49.803Z,95376.00
2019-03-16T07:21:19.416Z,95375.00
2019-03-16T07:26:48.786Z,95391.00
2019-03-16T07:32:18.140Z,95397.00
2019-03-16T07:37:47.680Z,95406.00
2019-03-16T07:43:17.199Z,95422.00
2019-03-16T07:48:46.562Z,95417.00
2019-03-16T07:54:15.968Z,95428.00
2019-03-16T07:59:45.453Z,95425.00
2019-03-16T08:05:19.105Z,95433.00
2019-03-16T08:10:47.122Z,95426.00
2019-03-16T08:16:17.285Z,95425.00
2019-03-16T08:21:52.779Z,95415.00
2019-03-16T08:27:22.530Z,95407.00
2019-03-16T08:32:52.130Z,95416.00
2019-03-16T08:38:21.605Z,95422.00
2019-03-16T08:43:51.215Z,95433.00
2019-03-16T08:49:20.604Z,95426.00
2019-03-16T08:54:49.987Z,95411.00
2019-03-16T09:00:19.521Z,95427.00
2019-03-16T09:05:50.052Z,95446.00
2019-03-16T09:11:20.533Z,95441.00
2019-03-16T09:16:51.585Z,95444.00
2019-03-16T09:22:20.971Z,95434.00
2019-03-16T09:27:53.119Z,95433.00
2019-03-16T09:33:22.952Z,95423.00
2019-03-16T09:38:52.722Z,95450.00
2019-03-16T09:44:24.669Z,95450.00
2019-03-16T09:49:57.402Z,95448.00
2019-03-16T09:55:27.088Z,95454.00
2019-03-16T10:00:56.714Z,95472.00
2019-03-16T10:06:26.118Z,95426.00
2019-03-16T10:11:55.600Z,95445.00
2019-03-16T10:17:25.089Z,95425.00
2019-03-16T10:22:54.938Z,95426.00
2019-03-16T10:28:24.576Z,95440.00
2019-03-16T10:33:55.170Z,95408.00
2019-03-16T10:39:24.802Z,95401.00
2019-03-16T10:44:54.391Z,95416.00
2019-03-16T10:50:25.661Z,95408.00
2019-03-16T10:55:56.780Z,95402.00
2019-03-16T11:01:26.441Z,95403.00
2019-03-16T11:06:56.615Z,95405.00
2019-03-16T11:12:26.310Z,95377.00
2019-03-16T11:18:00.292Z,95395.00
2019-03-16T11:23:31.540Z,95392.00
2019-03-16T11:29:08.853Z,95415.00
2019-03-16T11:34:32.916Z,95373.00
2019-03-16T11:40:02.654Z,95388.00
2019-03-16T11:45:32.112Z,95376.00
2019-03-16T11:51:03.249Z,95343.00
2019-03-16T11:56:33.105Z,95354.00
2019-03-16T12:02:05.493Z,95360.00
2019-03-16T12:07:35.300Z,95334.00
2019-03-16T12:13:16.456Z,95328.00
2019-03-16T12:18:37.186Z,95335.00
2019-03-16T12:24:06.567Z,95338.00
2019-03-16T12:29:36.112Z,95311.00
2019-03-16T12:35:07.873Z,95304.00
2019-03-16T12:40:37.375Z,95293.00
2019-03-16T12:46:07.915Z,95284.00
2019-03-16T12:51:37.385Z,95284.00
2019-03-16T12:57:06.969Z,95288.00
2019-03-16T13:02:37.442Z,95279.00
2019-03-16T13:08:06.795Z,95283.00
2019-03-16T13:13:36.198Z,95277.00
2019-03-16T13:19:06.663Z,95268.00
2019-03-16T13:24:36.094Z,95245.00
2019-03-16T13:30:17.777Z,95250.00
2019-03-16T13:35:47.180Z,95238.00
2019-03-16T13:41:16.599Z,95236.00
2019-03-16T13:46:46.125Z,95221.00
2019-03-16T13:52:15.553Z,95227.00
2019-03-16T13:57:45.185Z,95210.00
2019-03-16T14:03:17.475Z,95202.00
2019-03-16T14:08:46.933Z,95202.00
2019-03-16T14:14:16.387Z,95192.00
2019-03-16T14:19:45.888Z,95184.00
2019-03-16T14:25:15.484Z,95196.00
2019-03-16T14:30:45.329Z,95181.00
2019-03-16T14:36:15.085Z,95160.00
2019-03-16T14:41:51.675Z,95163.00
2019-03-16T14:47:21.099Z,95161.00
2019-03-16T14:52:50.427Z,95096.00
2019-03-16T14:58:19.951Z,95090.00
2019-03-16T15:03:49.454Z,95120.00
2019-03-16T15:09:18.964Z,95080.00
2019-03-16T15:14:48.291Z,95096.00
2019-03-16T15:20:17.850Z,95095.00
2019-03-16T15:25:47.273Z,95125.00
2019-03-16T15:31:17.700Z,95121.00
2019-03-16T15:36:47.157Z,95124.00
2019-03-16T15:42:16.478Z,95095.00
2019-03-16T15:47:46.007Z,95077.00
2019-03-16T15:53:15.811Z,95085.00
2019-03-16T15:58:45.153Z,95085.00
2019-03-16T16:04:15.545Z,95084.00
2019-03-16T16:09:44.949Z,95096.00
2019-03-16T16:15:20.880Z,95083.00
2019-03-16T16:20:50.446Z,95069.00
2019-03-16T16:26:20.852Z,95091.00
2019-03-16T16:31:50.726Z,95086.00
2019-03-16T16:37:21.468Z,95084.00
2019-03-16T16:42:52.688Z,95078.00
2019-03-16T16:48:23.800Z,95086.00
2019-03-16T16:53:54.264Z,95075.00
2019-03-16T16:59:24.074Z,95067.00
2019-03-16T17:04:53.548Z,95071.00
2019-03-16T17:10:31.406Z,95063.00
2019-03-16T17:16:04.029Z,95070.00
2019-03-16T17:21:43.859Z,95067.00
2019-03-16T17:27:14.720Z,95074.00
2019-03-16T17:32:51.002Z,95064.00
2019-03-16T17:38:24.951Z,95071.00
2019-03-16T17:43:59.039Z,95072.00
2019-03-16T17:49:27.653Z,95066.00
2019-03-16T17:54:57.677Z,95063.00
2019-03-16T18:00:38.864Z,95067.00
2019-03-16T18:06:11.743Z,95077.00
2019-03-16T18:11:50.379Z,95070.00
2019-03-16T18:17:31.160Z,95070.00
2019-03-16T18:23:02.549Z,95074.00
2019-03-16T18:28:38.302Z,95073.00
2019-03-16T18:34:10.220Z,95073.00
2019-03-16T18:39:53.752Z,95067.00
2019-03-16T18:45:40.201Z,95068.00
2019-03-16T18:51:59.967Z,95063.00
2019-03-16T18:57:19.644Z,95058.00
2019-03-16T19:02:56.779Z,95054.00
2019-03-16T19:08:27.104Z,95041.00
2019-03-16T19:13:59.512Z,95031.00
2019-03-16T19:19:35.462Z,95024.00
2019-03-16T19:25:14.130Z,95025.00
2019-03-16T19:30:45.364Z,95026.00
2019-03-16T19:36:25.933Z,95030.00
2019-03-16T19:42:00.899Z,95028.00
2019-03-16T19:47:33.519Z,95026.00
2019-03-16T19:53:10.521Z,95028.00
2019-03-16T19:58:43.337Z,95025.00
2019-03-16T20:04:14.578Z,95016.00
2019-03-16T20:09:44.242Z,95015.00
2019-03-16T20:15:24.616Z,95012.00
2019-03-16T20:21:02.952Z,95006.00
2019-03-16T20:32:21.318Z,95007.00
2019-03-16T20:37:50.956Z,95006.00
2019-03-16T20:43:25.001Z,95005.00
2019-03-16T20:48:57.114Z,94999.00
2019-03-16T20:54:26.825Z,94990.00
2019-03-16T21:00:00.759Z,94991.00
2019-03-16T21:05:30.017Z,94998.00
2019-03-16T21:10:59.384Z,94999.00
2019-03-16T21:16:29.572Z,94991.00
2019-03-16T21:21:58.843Z,94981.00
2019-03-16T21:27:28.167Z,94983.00
2019-03-16T21:32:57.520Z,94988.00
2019-03-16T21:38:26.811Z,94981.00
2019-03-16T21:43:56.156Z,94974.00
2019-03-16T21:49:25.488Z,94979.00
2019-03-16T21:54:54.785Z,94967.00
2019-03-16T22:00:27.188Z,94965.00
2019-03-16T22:05:56.526Z,94963.00
2019-03-16T22:11:25.799Z,94968.00
2019-03-16T22:16:55.116Z,94965.00
2019-03-16T22:22:25.176Z,94958.00
2019-03-16T22:27:56.323Z,94955.00
2019-03-16T22:33:25.622Z,94954.00
2019-03-16T22:38:54.898Z,94957.00
2019-03-16T22:44:25.536Z,94955.00
2019-03-16T22:49:54.812Z,94947.00
2019-03-16T22:55:24.497Z,94948.00
2019-03-16T23:00:54.496Z,94939.00
2019-03-16T23:06:23.770Z,94936.00
2019-03-16T23:11:53.049Z,94929.00
2019-03-16T23:17:22.326Z,94936.00
2019-03-16T23:22:51.603Z,94928.00
2019-03-16T23:28:20.881Z,94924.00
2019-03-16T23:33:50.163Z,94902.00
2019-03-16T23:39:19.502Z,94891.00
2019-03-16T23:44:48.711Z,94897.00
2019-03-16T23:50:17.999Z,94883.00
2019-03-16T23:55:47.279Z,94888.00
